sensor_id;sensor_type;location;lat;lon;timestamp;P1;durP1;ratioP1;P2;durP2;ratioP2
14603;SDS011;7388;51.078;13.740;2023-09-12T00:01:30;4.10;;;2.87;;
14603;SDS011;7388;51.078;13.740;2023-09-12T00:03:58;4.60;;;3.00;;
14603;SDS011;7388;51.078;13.740;2023-09-12T00:06:24;3.47;;;2.90;;
14603;SDS011;7388;51.078;13.740;2023-09-12T00:08:51;4.03;;;2.83;;
14603;SDS011;7388;51.078;13.740;2023-09-12T00:11:17;4.37;;;3.83;;
14603;SDS011;7388;51.078;13.740;2023-09-12T00:13:43;4.47;;;3.07;;
14603;SDS011;7388;51.078;13.740;2023-09-12T00:16:09;3.53;;;3.23;;
14603;SDS011;7388;51.078;13.740;2023-09-12T00:18:39;3.10;;;2.83;;
14603;SDS011;7388;51.078;13.740;2023-09-12T00:21:05;4.80;;;3.53;;
14603;SDS011;7388;51.078;13.740;2023-09-12T00:23:31;3.87;;;3.47;;
14603;SDS011;7388;51.078;13.740;2023-09-12T00:25:57;4.23;;;3.33;;
14603;SDS011;7388;51.078;13.740;2023-09-12T00:28:23;4.07;;;3.40;;
14603;SDS011;7388;51.078;13.740;2023-09-12T00:30:49;3.80;;;2.10;;
14603;SDS011;7388;51.078;13.740;2023-09-12T00:33:15;3.40;;;3.10;;
14603;SDS011;7388;51.078;13.740;2023-09-12T00:35:40;2.73;;;2.53;;
14603;SDS011;7388;51.078;13.740;2023-09-12T00:38:08;3.70;;;2.63;;
14603;SDS011;7388;51.078;13.740;2023-09-12T00:40:34;3.90;;;3.50;;
14603;SDS011;7388;51.078;13.740;2023-09-12T00:43:00;3.73;;;2.87;;
14603;SDS011;7388;51.078;13.740;2023-09-12T00:45:25;3.73;;;3.33;;
14603;SDS011;7388;51.078;13.740;2023-09-12T00:47:51;3.30;;;2.60;;
14603;SDS011;7388;51.078;13.740;2023-09-12T00:50:18;4.77;;;3.77;;
14603;SDS011;7388;51.078;13.740;2023-09-12T00:52:47;4.37;;;3.30;;
14603;SDS011;7388;51.078;13.740;2023-09-12T00:55:13;6.13;;;3.67;;
14603;SDS011;7388;51.078;13.740;2023-09-12T00:57:39;4.77;;;3.00;;
14603;SDS011;7388;51.078;13.740;2023-09-12T01:00:06;4.77;;;3.13;;
14603;SDS011;7388;51.078;13.740;2023-09-12T01:02:40;3.77;;;3.37;;
14603;SDS011;7388;51.078;13.740;2023-09-12T01:05:08;4.03;;;3.20;;
14603;SDS011;7388;51.078;13.740;2023-09-12T01:07:38;3.30;;;2.80;;
14603;SDS011;7388;51.078;13.740;2023-09-12T01:10:07;4.37;;;3.10;;
14603;SDS011;7388;51.078;13.740;2023-09-12T01:12:34;4.37;;;2.90;;
14603;SDS011;7388;51.078;13.740;2023-09-12T01:14:59;5.00;;;3.00;;
14603;SDS011;7388;51.078;13.740;2023-09-12T01:17:25;13.33;;;3.37;;
14603;SDS011;7388;51.078;13.740;2023-09-12T01:19:53;4.03;;;2.67;;
14603;SDS011;7388;51.078;13.740;2023-09-12T01:27:48;5.67;;;3.67;;
14603;SDS011;7388;51.078;13.740;2023-09-12T01:30:18;7.00;;;4.60;;
14603;SDS011;7388;51.078;13.740;2023-09-12T01:32:46;5.60;;;3.90;;
14603;SDS011;7388;51.078;13.740;2023-09-12T01:35:13;4.10;;;3.00;;
14603;SDS011;7388;51.078;13.740;2023-09-12T01:37:39;5.77;;;3.60;;
14603;SDS011;7388;51.078;13.740;2023-09-12T01:40:05;3.93;;;3.53;;
14603;SDS011;7388;51.078;13.740;2023-09-12T01:42:39;5.53;;;4.50;;
14603;SDS011;7388;51.078;13.740;2023-09-12T01:45:09;5.47;;;4.90;;
14603;SDS011;7388;51.078;13.740;2023-09-12T01:47:38;6.27;;;4.20;;
14603;SDS011;7388;51.078;13.740;2023-09-12T01:50:05;6.07;;;3.80;;
14603;SDS011;7388;51.078;13.740;2023-09-12T01:52:33;3.83;;;1.90;;
14603;SDS011;7388;51.078;13.740;2023-09-12T01:55:00;4.53;;;3.50;;
14603;SDS011;7388;51.078;13.740;2023-09-12T01:57:27;4.47;;;3.83;;
14603;SDS011;7388;51.078;13.740;2023-09-12T01:59:54;6.23;;;3.83;;
14603;SDS011;7388;51.078;13.740;2023-09-12T02:02:20;3.80;;;2.83;;
14603;SDS011;7388;51.078;13.740;2023-09-12T02:07:27;3.90;;;2.90;;
14603;SDS011;7388;51.078;13.740;2023-09-12T02:09:57;5.13;;;4.30;;
14603;SDS011;7388;51.078;13.740;2023-09-12T02:12:23;4.50;;;3.43;;
14603;SDS011;7388;51.078;13.740;2023-09-12T02:14:49;7.17;;;3.50;;
14603;SDS011;7388;51.078;13.740;2023-09-12T02:17:15;5.97;;;4.07;;
14603;SDS011;7388;51.078;13.740;2023-09-12T02:19:40;4.50;;;3.93;;
14603;SDS011;7388;51.078;13.740;2023-09-12T02:22:06;3.10;;;2.70;;
14603;SDS011;7388;51.078;13.740;2023-09-12T02:24:34;4.40;;;2.20;;
14603;SDS011;7388;51.078;13.740;2023-09-12T02:27:00;4.30;;;3.77;;
14603;SDS011;7388;51.078;13.740;2023-09-12T02:29:26;4.70;;;3.07;;
14603;SDS011;7388;51.078;13.740;2023-09-12T02:31:51;3.00;;;2.07;;
14603;SDS011;7388;51.078;13.740;2023-09-12T02:34:17;4.90;;;3.13;;
14603;SDS011;7388;51.078;13.740;2023-09-12T02:36:43;4.70;;;3.73;;
14603;SDS011;7388;51.078;13.740;2023-09-12T02:39:09;10.90;;;4.70;;
14603;SDS011;7388;51.078;13.740;2023-09-12T02:41:34;5.27;;;3.53;;
14603;SDS011;7388;51.078;13.740;2023-09-12T02:44:00;2.90;;;1.90;;
14603;SDS011;7388;51.078;13.740;2023-09-12T02:46:26;3.07;;;2.77;;
14603;SDS011;7388;51.078;13.740;2023-09-12T02:48:52;3.63;;;2.50;;
14603;SDS011;7388;51.078;13.740;2023-09-12T02:51:17;3.00;;;2.50;;
14603;SDS011;7388;51.078;13.740;2023-09-12T02:53:43;3.10;;;2.57;;
14603;SDS011;7388;51.078;13.740;2023-09-12T02:56:09;6.30;;;2.40;;
14603;SDS011;7388;51.078;13.740;2023-09-12T02:58:34;3.00;;;2.30;;
14603;SDS011;7388;51.078;13.740;2023-09-12T03:01:00;4.77;;;3.83;;
14603;SDS011;7388;51.078;13.740;2023-09-12T03:03:28;2.60;;;2.20;;
14603;SDS011;7388;51.078;13.740;2023-09-12T03:06:00;5.13;;;4.00;;
14603;SDS011;7388;51.078;13.740;2023-09-12T03:08:29;2.97;;;2.40;;
14603;SDS011;7388;51.078;13.740;2023-09-12T03:10:55;5.63;;;4.33;;
14603;SDS011;7388;51.078;13.740;2023-09-12T03:13:23;4.13;;;3.77;;
14603;SDS011;7388;51.078;13.740;2023-09-12T03:15:51;4.23;;;3.83;;
14603;SDS011;7388;51.078;13.740;2023-09-12T03:18:17;5.07;;;3.83;;
14603;SDS011;7388;51.078;13.740;2023-09-12T03:20:43;5.10;;;3.80;;
14603;SDS011;7388;51.078;13.740;2023-09-12T03:23:09;3.47;;;2.73;;
14603;SDS011;7388;51.078;13.740;2023-09-12T03:25:38;3.97;;;3.03;;
14603;SDS011;7388;51.078;13.740;2023-09-12T03:28:05;5.37;;;3.00;;
14603;SDS011;7388;51.078;13.740;2023-09-12T03:30:35;2.50;;;2.17;;
14603;SDS011;7388;51.078;13.740;2023-09-12T03:33:01;3.80;;;2.67;;
14603;SDS011;7388;51.078;13.740;2023-09-12T03:35:33;3.87;;;2.67;;
14603;SDS011;7388;51.078;13.740;2023-09-12T03:37:59;3.70;;;2.83;;
14603;SDS011;7388;51.078;13.740;2023-09-12T03:40:27;3.47;;;2.73;;
14603;SDS011;7388;51.078;13.740;2023-09-12T03:42:55;5.53;;;4.60;;
14603;SDS011;7388;51.078;13.740;2023-09-12T03:45:21;4.80;;;4.00;;
14603;SDS011;7388;51.078;13.740;2023-09-12T03:47:47;4.33;;;3.83;;
14603;SDS011;7388;51.078;13.740;2023-09-12T03:50:13;5.07;;;3.47;;
14603;SDS011;7388;51.078;13.740;2023-09-12T03:52:39;4.17;;;3.17;;
14603;SDS011;7388;51.078;13.740;2023-09-12T03:55:05;4.10;;;2.70;;
14603;SDS011;7388;51.078;13.740;2023-09-12T03:57:31;2.87;;;2.50;;
14603;SDS011;7388;51.078;13.740;2023-09-12T03:59:56;4.23;;;3.33;;
14603;SDS011;7388;51.078;13.740;2023-09-12T04:02:22;3.83;;;2.50;;
14603;SDS011;7388;51.078;13.740;2023-09-12T04:04:48;3.20;;;2.47;;
14603;SDS011;7388;51.078;13.740;2023-09-12T04:07:14;3.50;;;2.80;;
14603;SDS011;7388;51.078;13.740;2023-09-12T04:09:40;3.63;;;2.13;;
14603;SDS011;7388;51.078;13.740;2023-09-12T04:12:06;4.13;;;3.73;;
14603;SDS011;7388;51.078;13.740;2023-09-12T04:14:33;4.13;;;3.73;;
14603;SDS011;7388;51.078;13.740;2023-09-12T04:17:00;3.03;;;2.53;;
14603;SDS011;7388;51.078;13.740;2023-09-12T04:19:25;4.17;;;3.23;;
14603;SDS011;7388;51.078;13.740;2023-09-12T04:21:51;2.90;;;2.60;;
14603;SDS011;7388;51.078;13.740;2023-09-12T04:24:17;3.73;;;2.90;;
14603;SDS011;7388;51.078;13.740;2023-09-12T04:26:43;5.70;;;3.60;;
14603;SDS011;7388;51.078;13.740;2023-09-12T04:29:09;4.10;;;2.60;;
14603;SDS011;7388;51.078;13.740;2023-09-12T04:31:35;2.90;;;2.27;;
14603;SDS011;7388;51.078;13.740;2023-09-12T04:34:01;4.90;;;2.00;;
14603;SDS011;7388;51.078;13.740;2023-09-12T04:36:27;2.90;;;2.47;;
14603;SDS011;7388;51.078;13.740;2023-09-12T04:38:53;5.30;;;4.13;;
14603;SDS011;7388;51.078;13.740;2023-09-12T04:41:18;4.80;;;3.10;;
14603;SDS011;7388;51.078;13.740;2023-09-12T04:43:44;3.33;;;2.00;;
14603;SDS011;7388;51.078;13.740;2023-09-12T04:46:10;4.77;;;3.70;;
14603;SDS011;7388;51.078;13.740;2023-09-12T04:48:37;3.37;;;2.53;;
14603;SDS011;7388;51.078;13.740;2023-09-12T04:51:03;3.13;;;2.43;;
14603;SDS011;7388;51.078;13.740;2023-09-12T04:53:29;5.30;;;3.93;;
14603;SDS011;7388;51.078;13.740;2023-09-12T04:56:00;3.73;;;2.90;;
14603;SDS011;7388;51.078;13.740;2023-09-12T04:58:26;5.20;;;3.20;;
14603;SDS011;7388;51.078;13.740;2023-09-12T05:00:52;4.03;;;2.83;;
14603;SDS011;7388;51.078;13.740;2023-09-12T05:03:19;7.83;;;2.83;;
14603;SDS011;7388;51.078;13.740;2023-09-12T05:05:45;4.27;;;2.20;;
14603;SDS011;7388;51.078;13.740;2023-09-12T05:08:12;4.70;;;2.90;;
14603;SDS011;7388;51.078;13.740;2023-09-12T05:10:38;5.30;;;3.77;;
14603;SDS011;7388;51.078;13.740;2023-09-12T05:13:04;2.90;;;2.20;;
14603;SDS011;7388;51.078;13.740;2023-09-12T05:15:30;5.33;;;3.67;;
14603;SDS011;7388;51.078;13.740;2023-09-12T05:17:56;4.33;;;3.63;;
14603;SDS011;7388;51.078;13.740;2023-09-12T05:20:22;6.50;;;3.47;;
14603;SDS011;7388;51.078;13.740;2023-09-12T05:22:47;4.33;;;3.60;;
14603;SDS011;7388;51.078;13.740;2023-09-12T05:25:13;4.73;;;3.47;;
14603;SDS011;7388;51.078;13.740;2023-09-12T05:27:39;4.87;;;3.50;;
14603;SDS011;7388;51.078;13.740;2023-09-12T05:30:05;2.57;;;2.30;;
14603;SDS011;7388;51.078;13.740;2023-09-12T05:32:31;5.53;;;2.90;;
14603;SDS011;7388;51.078;13.740;2023-09-12T05:34:57;5.07;;;3.03;;
14603;SDS011;7388;51.078;13.740;2023-09-12T05:37:26;2.93;;;2.63;;
14603;SDS011;7388;51.078;13.740;2023-09-12T05:39:51;4.00;;;2.57;;
14603;SDS011;7388;51.078;13.740;2023-09-12T05:42:17;5.00;;;3.13;;
14603;SDS011;7388;51.078;13.740;2023-09-12T05:44:47;4.77;;;3.43;;
14603;SDS011;7388;51.078;13.740;2023-09-12T05:47:14;5.03;;;3.80;;
14603;SDS011;7388;51.078;13.740;2023-09-12T05:49:40;4.37;;;3.27;;
14603;SDS011;7388;51.078;13.740;2023-09-12T05:52:06;3.63;;;2.30;;
14603;SDS011;7388;51.078;13.740;2023-09-12T05:54:32;4.10;;;3.03;;
14603;SDS011;7388;51.078;13.740;2023-09-12T05:56:57;3.63;;;2.80;;
14603;SDS011;7388;51.078;13.740;2023-09-12T05:59:23;5.70;;;4.33;;
14603;SDS011;7388;51.078;13.740;2023-09-12T06:01:49;4.07;;;2.83;;
14603;SDS011;7388;51.078;13.740;2023-09-12T06:04:15;3.27;;;2.80;;
14603;SDS011;7388;51.078;13.740;2023-09-12T06:06:40;5.10;;;3.73;;
14603;SDS011;7388;51.078;13.740;2023-09-12T06:09:06;5.13;;;3.87;;
14603;SDS011;7388;51.078;13.740;2023-09-12T06:11:33;4.10;;;2.90;;
14603;SDS011;7388;51.078;13.740;2023-09-12T06:13:59;6.40;;;3.80;;
14603;SDS011;7388;51.078;13.740;2023-09-12T06:16:25;4.23;;;3.10;;
14603;SDS011;7388;51.078;13.740;2023-09-12T06:18:51;4.57;;;3.63;;
14603;SDS011;7388;51.078;13.740;2023-09-12T06:21:18;4.43;;;3.77;;
14603;SDS011;7388;51.078;13.740;2023-09-12T06:23:46;5.27;;;2.90;;
14603;SDS011;7388;51.078;13.740;2023-09-12T06:26:13;5.90;;;3.40;;
14603;SDS011;7388;51.078;13.740;2023-09-12T06:28:39;5.83;;;3.60;;
14603;SDS011;7388;51.078;13.740;2023-09-12T06:31:08;4.53;;;2.80;;
14603;SDS011;7388;51.078;13.740;2023-09-12T06:33:34;3.07;;;2.77;;
14603;SDS011;7388;51.078;13.740;2023-09-12T06:36:00;6.73;;;3.80;;
14603;SDS011;7388;51.078;13.740;2023-09-12T06:38:26;4.83;;;4.00;;
14603;SDS011;7388;51.078;13.740;2023-09-12T06:40:51;3.70;;;3.07;;
14603;SDS011;7388;51.078;13.740;2023-09-12T06:43:17;3.10;;;2.80;;
14603;SDS011;7388;51.078;13.740;2023-09-12T06:45:43;3.30;;;3.00;;
14603;SDS011;7388;51.078;13.740;2023-09-12T06:48:10;3.90;;;2.90;;
14603;SDS011;7388;51.078;13.740;2023-09-12T06:50:35;5.40;;;3.50;;
14603;SDS011;7388;51.078;13.740;2023-09-12T06:53:04;3.60;;;2.80;;
14603;SDS011;7388;51.078;13.740;2023-09-12T06:55:32;7.23;;;3.53;;
14603;SDS011;7388;51.078;13.740;2023-09-12T06:57:58;4.00;;;2.80;;
14603;SDS011;7388;51.078;13.740;2023-09-12T07:00:23;6.43;;;3.57;;
14603;SDS011;7388;51.078;13.740;2023-09-12T07:02:51;2.73;;;2.30;;
14603;SDS011;7388;51.078;13.740;2023-09-12T07:05:17;3.53;;;2.43;;
14603;SDS011;7388;51.078;13.740;2023-09-12T07:07:43;6.20;;;2.83;;
14603;SDS011;7388;51.078;13.740;2023-09-12T07:10:09;3.80;;;2.87;;
14603;SDS011;7388;51.078;13.740;2023-09-12T07:12:34;2.77;;;2.37;;
14603;SDS011;7388;51.078;13.740;2023-09-12T07:15:00;3.80;;;3.20;;
14603;SDS011;7388;51.078;13.740;2023-09-12T07:17:29;3.70;;;2.40;;
14603;SDS011;7388;51.078;13.740;2023-09-12T07:19:55;5.20;;;3.33;;
14603;SDS011;7388;51.078;13.740;2023-09-12T07:22:20;3.33;;;2.20;;
14603;SDS011;7388;51.078;13.740;2023-09-12T07:24:46;4.07;;;2.23;;
14603;SDS011;7388;51.078;13.740;2023-09-12T07:27:12;3.43;;;3.13;;
14603;SDS011;7388;51.078;13.740;2023-09-12T07:29:38;2.40;;;2.20;;
14603;SDS011;7388;51.078;13.740;2023-09-12T07:32:03;2.73;;;2.40;;
14603;SDS011;7388;51.078;13.740;2023-09-12T07:34:29;4.97;;;3.57;;
14603;SDS011;7388;51.078;13.740;2023-09-12T07:36:55;4.87;;;3.47;;
14603;SDS011;7388;51.078;13.740;2023-09-12T07:39:21;3.20;;;2.90;;
14603;SDS011;7388;51.078;13.740;2023-09-12T07:41:47;4.90;;;2.07;;
14603;SDS011;7388;51.078;13.740;2023-09-12T07:44:12;3.07;;;2.50;;
14603;SDS011;7388;51.078;13.740;2023-09-12T07:46:40;4.93;;;2.90;;
14603;SDS011;7388;51.078;13.740;2023-09-12T07:49:06;3.20;;;2.77;;
14603;SDS011;7388;51.078;13.740;2023-09-12T07:51:34;3.20;;;2.87;;
14603;SDS011;7388;51.078;13.740;2023-09-12T07:54:00;2.50;;;2.20;;
14603;SDS011;7388;51.078;13.740;2023-09-12T07:56:27;3.10;;;2.10;;
14603;SDS011;7388;51.078;13.740;2023-09-12T07:58:52;2.50;;;2.17;;
14603;SDS011;7388;51.078;13.740;2023-09-12T08:01:18;3.37;;;2.53;;
14603;SDS011;7388;51.078;13.740;2023-09-12T08:03:44;4.83;;;3.23;;
14603;SDS011;7388;51.078;13.740;2023-09-12T08:06:10;5.67;;;3.13;;
14603;SDS011;7388;51.078;13.740;2023-09-12T08:08:36;6.43;;;2.77;;
14603;SDS011;7388;51.078;13.740;2023-09-12T08:11:02;3.53;;;3.10;;
14603;SDS011;7388;51.078;13.740;2023-09-12T08:13:28;4.93;;;2.80;;
14603;SDS011;7388;51.078;13.740;2023-09-12T08:15:55;3.70;;;2.87;;
14603;SDS011;7388;51.078;13.740;2023-09-12T08:18:21;3.20;;;2.90;;
14603;SDS011;7388;51.078;13.740;2023-09-12T08:20:47;2.90;;;2.50;;
14603;SDS011;7388;51.078;13.740;2023-09-12T08:23:13;4.03;;;2.00;;
14603;SDS011;7388;51.078;13.740;2023-09-12T08:25:42;3.50;;;2.30;;
14603;SDS011;7388;51.078;13.740;2023-09-12T08:28:07;4.47;;;2.80;;
14603;SDS011;7388;51.078;13.740;2023-09-12T08:30:33;3.80;;;3.23;;
14603;SDS011;7388;51.078;13.740;2023-09-12T08:32:59;2.90;;;2.03;;
14603;SDS011;7388;51.078;13.740;2023-09-12T08:35:27;2.83;;;2.53;;
14603;SDS011;7388;51.078;13.740;2023-09-12T08:37:53;1.83;;;1.50;;
14603;SDS011;7388;51.078;13.740;2023-09-12T08:40:19;3.33;;;2.13;;
14603;SDS011;7388;51.078;13.740;2023-09-12T08:42:45;3.60;;;1.93;;
14603;SDS011;7388;51.078;13.740;2023-09-12T08:45:15;2.93;;;2.00;;
14603;SDS011;7388;51.078;13.740;2023-09-12T08:47:50;3.30;;;2.10;;
14603;SDS011;7388;51.078;13.740;2023-09-12T08:50:18;3.83;;;2.57;;
14603;SDS011;7388;51.078;13.740;2023-09-12T08:52:46;2.00;;;1.60;;
14603;SDS011;7388;51.078;13.740;2023-09-12T08:55:12;2.10;;;1.57;;
14603;SDS011;7388;51.078;13.740;2023-09-12T08:57:40;2.40;;;1.90;;
14603;SDS011;7388;51.078;13.740;2023-09-12T09:00:07;2.83;;;2.37;;
14603;SDS011;7388;51.078;13.740;2023-09-12T09:02:35;3.23;;;2.33;;
14603;SDS011;7388;51.078;13.740;2023-09-12T09:05:03;2.70;;;2.33;;
14603;SDS011;7388;51.078;13.740;2023-09-12T09:07:33;2.50;;;2.20;;
14603;SDS011;7388;51.078;13.740;2023-09-12T09:10:10;3.67;;;2.23;;
14603;SDS011;7388;51.078;13.740;2023-09-12T09:12:40;4.70;;;2.73;;
14603;SDS011;7388;51.078;13.740;2023-09-12T09:17:51;3.37;;;2.60;;
14603;SDS011;7388;51.078;13.740;2023-09-12T09:20:29;5.00;;;1.97;;
14603;SDS011;7388;51.078;13.740;2023-09-12T09:23:03;4.67;;;3.60;;
14603;SDS011;7388;51.078;13.740;2023-09-12T09:25:36;2.80;;;1.87;;
14603;SDS011;7388;51.078;13.740;2023-09-12T09:28:16;3.07;;;2.00;;
14603;SDS011;7388;51.078;13.740;2023-09-12T09:30:44;2.80;;;1.50;;
14603;SDS011;7388;51.078;13.740;2023-09-12T09:33:11;3.30;;;1.93;;
14603;SDS011;7388;51.078;13.740;2023-09-12T09:35:38;3.77;;;2.50;;
14603;SDS011;7388;51.078;13.740;2023-09-12T09:38:06;3.23;;;2.53;;
14603;SDS011;7388;51.078;13.740;2023-09-12T09:40:33;1.80;;;1.50;;
14603;SDS011;7388;51.078;13.740;2023-09-12T09:43:01;3.97;;;2.33;;
14603;SDS011;7388;51.078;13.740;2023-09-12T09:45:29;3.60;;;2.73;;
14603;SDS011;7388;51.078;13.740;2023-09-12T09:48:03;2.07;;;1.87;;
14603;SDS011;7388;51.078;13.740;2023-09-12T09:50:33;3.67;;;2.53;;
14603;SDS011;7388;51.078;13.740;2023-09-12T09:53:02;1.83;;;1.60;;
14603;SDS011;7388;51.078;13.740;2023-09-12T09:55:29;2.87;;;1.93;;
14603;SDS011;7388;51.078;13.740;2023-09-12T09:57:55;3.00;;;2.20;;
14603;SDS011;7388;51.078;13.740;2023-09-12T10:00:22;3.27;;;1.60;;
14603;SDS011;7388;51.078;13.740;2023-09-12T10:02:49;3.03;;;1.47;;
14603;SDS011;7388;51.078;13.740;2023-09-12T10:05:16;1.97;;;1.13;;
14603;SDS011;7388;51.078;13.740;2023-09-12T10:07:43;1.80;;;1.50;;
14603;SDS011;7388;51.078;13.740;2023-09-12T10:10:18;1.70;;;1.50;;
14603;SDS011;7388;51.078;13.740;2023-09-12T10:12:57;2.53;;;1.90;;
14603;SDS011;7388;51.078;13.740;2023-09-12T10:15:23;2.63;;;1.17;;
14603;SDS011;7388;51.078;13.740;2023-09-12T10:17:57;1.90;;;1.40;;
14603;SDS011;7388;51.078;13.740;2023-09-12T10:20:45;2.13;;;1.60;;
14603;SDS011;7388;51.078;13.740;2023-09-12T10:23:19;1.60;;;1.43;;
14603;SDS011;7388;51.078;13.740;2023-09-12T10:26:07;2.80;;;1.43;;
14603;SDS011;7388;51.078;13.740;2023-09-12T10:28:42;1.70;;;1.23;;
14603;SDS011;7388;51.078;13.740;2023-09-12T10:31:08;2.20;;;1.30;;
14603;SDS011;7388;51.078;13.740;2023-09-12T10:33:37;2.33;;;1.33;;
14603;SDS011;7388;51.078;13.740;2023-09-12T10:36:03;5.13;;;1.53;;
14603;SDS011;7388;51.078;13.740;2023-09-12T10:38:30;2.67;;;1.60;;
14603;SDS011;7388;51.078;13.740;2023-09-12T10:41:00;2.07;;;1.40;;
14603;SDS011;7388;51.078;13.740;2023-09-12T10:43:28;2.80;;;1.90;;
14603;SDS011;7388;51.078;13.740;2023-09-12T10:45:54;2.60;;;1.50;;
14603;SDS011;7388;51.078;13.740;2023-09-12T10:48:24;2.27;;;1.33;;
14603;SDS011;7388;51.078;13.740;2023-09-12T10:50:50;2.07;;;1.37;;
14603;SDS011;7388;51.078;13.740;2023-09-12T10:53:16;2.07;;;1.30;;
14603;SDS011;7388;51.078;13.740;2023-09-12T10:55:42;2.87;;;1.63;;
14603;SDS011;7388;51.078;13.740;2023-09-12T10:58:25;2.27;;;1.47;;
14603;SDS011;7388;51.078;13.740;2023-09-12T11:03:51;2.10;;;1.20;;
14603;SDS011;7388;51.078;13.740;2023-09-12T11:06:21;1.77;;;1.40;;
14603;SDS011;7388;51.078;13.740;2023-09-12T11:11:43;3.37;;;1.60;;
14603;SDS011;7388;51.078;13.740;2023-09-12T11:14:11;2.00;;;1.63;;
14603;SDS011;7388;51.078;13.740;2023-09-12T11:16:38;2.23;;;1.90;;
14603;SDS011;7388;51.078;13.740;2023-09-12T11:19:19;3.40;;;2.63;;
14603;SDS011;7388;51.078;13.740;2023-09-12T11:21:51;1.67;;;1.10;;
14603;SDS011;7388;51.078;13.740;2023-09-12T11:24:19;2.77;;;1.40;;
14603;SDS011;7388;51.078;13.740;2023-09-12T11:27:18;1.70;;;1.00;;
14603;SDS011;7388;51.078;13.740;2023-09-12T11:29:38;2.03;;;1.43;;
14603;SDS011;7388;51.078;13.740;2023-09-12T11:32:05;2.03;;;1.50;;
14603;SDS011;7388;51.078;13.740;2023-09-12T11:34:40;1.67;;;1.13;;
14603;SDS011;7388;51.078;13.740;2023-09-12T11:37:07;1.83;;;1.10;;
14603;SDS011;7388;51.078;13.740;2023-09-12T11:39:34;1.93;;;1.37;;
14603;SDS011;7388;51.078;13.740;2023-09-12T11:42:04;2.37;;;1.17;;
14603;SDS011;7388;51.078;13.740;2023-09-12T11:44:35;4.10;;;2.13;;
14603;SDS011;7388;51.078;13.740;2023-09-12T11:47:01;2.13;;;1.23;;
14603;SDS011;7388;51.078;13.740;2023-09-12T11:49:40;3.53;;;1.73;;
14603;SDS011;7388;51.078;13.740;2023-09-12T11:52:10;1.70;;;1.07;;
14603;SDS011;7388;51.078;13.740;2023-09-12T11:54:38;2.17;;;1.30;;
14603;SDS011;7388;51.078;13.740;2023-09-12T11:57:08;1.80;;;1.20;;
14603;SDS011;7388;51.078;13.740;2023-09-12T11:59:39;2.00;;;1.40;;
14603;SDS011;7388;51.078;13.740;2023-09-12T12:02:08;2.37;;;1.60;;
14603;SDS011;7388;51.078;13.740;2023-09-12T12:04:35;2.10;;;1.70;;
14603;SDS011;7388;51.078;13.740;2023-09-12T12:07:02;1.83;;;1.30;;
14603;SDS011;7388;51.078;13.740;2023-09-12T12:09:32;2.73;;;1.30;;
14603;SDS011;7388;51.078;13.740;2023-09-12T12:12:03;2.27;;;1.83;;
14603;SDS011;7388;51.078;13.740;2023-09-12T12:14:30;2.10;;;1.33;;
14603;SDS011;7388;51.078;13.740;2023-09-12T12:17:04;2.43;;;1.00;;
14603;SDS011;7388;51.078;13.740;2023-09-12T12:19:34;2.60;;;1.50;;
14603;SDS011;7388;51.078;13.740;2023-09-12T12:22:01;1.93;;;1.43;;
14603;SDS011;7388;51.078;13.740;2023-09-12T12:24:36;2.10;;;1.40;;
14603;SDS011;7388;51.078;13.740;2023-09-12T12:27:06;1.77;;;1.20;;
14603;SDS011;7388;51.078;13.740;2023-09-12T12:29:34;2.23;;;1.43;;
14603;SDS011;7388;51.078;13.740;2023-09-12T12:32:01;2.20;;;1.40;;
14603;SDS011;7388;51.078;13.740;2023-09-12T12:34:27;1.80;;;0.83;;
14603;SDS011;7388;51.078;13.740;2023-09-12T12:36:54;4.07;;;1.50;;
14603;SDS011;7388;51.078;13.740;2023-09-12T12:39:20;1.77;;;1.30;;
14603;SDS011;7388;51.078;13.740;2023-09-12T12:41:47;1.83;;;1.07;;
14603;SDS011;7388;51.078;13.740;2023-09-12T12:44:13;2.63;;;1.70;;
14603;SDS011;7388;51.078;13.740;2023-09-12T12:46:50;1.80;;;1.00;;
14603;SDS011;7388;51.078;13.740;2023-09-12T12:49:17;1.43;;;0.90;;
14603;SDS011;7388;51.078;13.740;2023-09-12T12:51:44;1.50;;;0.87;;
14603;SDS011;7388;51.078;13.740;2023-09-12T12:54:10;2.73;;;1.00;;
14603;SDS011;7388;51.078;13.740;2023-09-12T12:56:36;1.40;;;0.73;;
14603;SDS011;7388;51.078;13.740;2023-09-12T12:59:04;2.10;;;1.40;;
14603;SDS011;7388;51.078;13.740;2023-09-12T13:01:34;2.07;;;1.23;;
14603;SDS011;7388;51.078;13.740;2023-09-12T13:04:01;1.83;;;1.27;;
14603;SDS011;7388;51.078;13.740;2023-09-12T13:06:27;1.93;;;1.00;;
14603;SDS011;7388;51.078;13.740;2023-09-12T13:08:55;1.33;;;0.70;;
14603;SDS011;7388;51.078;13.740;2023-09-12T13:11:26;2.07;;;1.17;;
14603;SDS011;7388;51.078;13.740;2023-09-12T13:13:52;1.80;;;1.40;;
14603;SDS011;7388;51.078;13.740;2023-09-12T13:16:18;3.30;;;0.97;;
14603;SDS011;7388;51.078;13.740;2023-09-12T13:18:44;2.03;;;1.23;;
14603;SDS011;7388;51.078;13.740;2023-09-12T13:21:09;4.37;;;1.43;;
14603;SDS011;7388;51.078;13.740;2023-09-12T13:23:36;1.87;;;1.03;;
14603;SDS011;7388;51.078;13.740;2023-09-12T13:26:03;1.70;;;1.20;;
14603;SDS011;7388;51.078;13.740;2023-09-12T13:28:30;1.53;;;1.17;;
14603;SDS011;7388;51.078;13.740;2023-09-12T13:30:56;1.70;;;0.70;;
14603;SDS011;7388;51.078;13.740;2023-09-12T13:33:25;1.83;;;1.27;;
14603;SDS011;7388;51.078;13.740;2023-09-12T13:35:50;1.90;;;1.40;;
14603;SDS011;7388;51.078;13.740;2023-09-12T13:38:17;2.33;;;1.20;;
14603;SDS011;7388;51.078;13.740;2023-09-12T13:40:44;1.70;;;1.10;;
14603;SDS011;7388;51.078;13.740;2023-09-12T13:43:11;2.00;;;1.30;;
14603;SDS011;7388;51.078;13.740;2023-09-12T13:45:38;1.93;;;0.90;;
14603;SDS011;7388;51.078;13.740;2023-09-12T13:48:04;1.87;;;1.10;;
14603;SDS011;7388;51.078;13.740;2023-09-12T13:50:31;1.67;;;1.00;;
14603;SDS011;7388;51.078;13.740;2023-09-12T13:52:58;2.00;;;1.60;;
14603;SDS011;7388;51.078;13.740;2023-09-12T13:55:34;2.97;;;1.40;;
14603;SDS011;7388;51.078;13.740;2023-09-12T13:58:03;2.17;;;1.37;;
14603;SDS011;7388;51.078;13.740;2023-09-12T14:00:31;1.60;;;1.37;;
14603;SDS011;7388;51.078;13.740;2023-09-12T14:02:57;3.57;;;1.30;;
14603;SDS011;7388;51.078;13.740;2023-09-12T14:05:23;1.80;;;1.53;;
14603;SDS011;7388;51.078;13.740;2023-09-12T14:07:49;1.50;;;1.10;;
14603;SDS011;7388;51.078;13.740;2023-09-12T14:10:16;2.60;;;1.00;;
14603;SDS011;7388;51.078;13.740;2023-09-12T14:12:42;2.07;;;0.97;;
14603;SDS011;7388;51.078;13.740;2023-09-12T14:15:09;1.60;;;1.27;;
14603;SDS011;7388;51.078;13.740;2023-09-12T14:17:36;2.57;;;1.40;;
14603;SDS011;7388;51.078;13.740;2023-09-12T14:20:02;2.40;;;1.57;;
14603;SDS011;7388;51.078;13.740;2023-09-12T14:22:28;1.60;;;1.23;;
14603;SDS011;7388;51.078;13.740;2023-09-12T14:24:54;1.67;;;1.10;;
14603;SDS011;7388;51.078;13.740;2023-09-12T14:27:20;1.70;;;1.03;;
14603;SDS011;7388;51.078;13.740;2023-09-12T14:29:46;3.07;;;1.30;;
14603;SDS011;7388;51.078;13.740;2023-09-12T14:32:14;2.07;;;1.43;;
14603;SDS011;7388;51.078;13.740;2023-09-12T14:34:40;1.60;;;1.00;;
14603;SDS011;7388;51.078;13.740;2023-09-12T14:37:06;5.23;;;1.53;;
14603;SDS011;7388;51.078;13.740;2023-09-12T14:39:32;2.47;;;1.60;;
14603;SDS011;7388;51.078;13.740;2023-09-12T14:41:58;1.80;;;1.50;;
14603;SDS011;7388;51.078;13.740;2023-09-12T14:44:26;2.33;;;1.77;;
14603;SDS011;7388;51.078;13.740;2023-09-12T14:46:53;2.10;;;1.60;;
14603;SDS011;7388;51.078;13.740;2023-09-12T14:49:19;1.97;;;1.23;;
14603;SDS011;7388;51.078;13.740;2023-09-12T14:51:45;1.90;;;1.10;;
14603;SDS011;7388;51.078;13.740;2023-09-12T14:54:11;2.27;;;1.60;;
14603;SDS011;7388;51.078;13.740;2023-09-12T14:56:37;1.87;;;1.23;;
14603;SDS011;7388;51.078;13.740;2023-09-12T14:59:04;2.00;;;0.93;;
14603;SDS011;7388;51.078;13.740;2023-09-12T15:01:31;3.80;;;1.30;;
14603;SDS011;7388;51.078;13.740;2023-09-12T15:03:59;2.33;;;2.03;;
14603;SDS011;7388;51.078;13.740;2023-09-12T15:06:26;1.53;;;1.20;;